Time;durP1;ratioP1;P1;durP2;ratioP2;P2;SDS_P1;SDS_P2;PMS_P1;PMS_P2;Temp;Humidity;BMP_temperature;BMP_pressure;BME280_temperature;BME280_humidity;BME280_pressure;Samples;Min_cycle;Max_cycle;Signal;HPM_P1;HPM_P2
2022/05/11 00:01:52;;;;;;;7.85;7.07;;;17.40;99.90;;;;;;5074331;28;20577;-55
2022/05/11 00:04:19;;;;;;;7.30;6.60;;;17.40;99.90;;;;;;5074397;28;20304;-56
2022/05/11 00:06:46;;;;;;;8.43;6.72;;;17.40;99.90;;;;;;5073768;28;20236;-56
2022/05/11 00:09:14;;;;;;;8.18;6.95;;;17.40;99.90;;;;;;5074023;28;20235;-57
2022/05/11 00:11:42;;;;;;;8.40;7.28;;;17.20;99.90;;;;;;5074091;28;20205;-55
2022/05/11 00:14:09;;;;;;;7.23;6.60;;;17.10;99.90;;;;;;5074205;28;20779;-55
2022/05/11 00:16:37;;;;;;;7.82;6.45;;;16.90;99.90;;;;;;5074196;28;20228;-55
2022/05/11 00:19:04;;;;;;;7.80;7.10;;;16.80;99.90;;;;;;5074156;28;20286;-55
2022/05/11 00:21:31;;;;;;;7.40;6.80;;;16.70;99.90;;;;;;5074093;28;20205;-55
2022/05/11 00:23:58;;;;;;;7.53;6.83;;;16.70;99.90;;;;;;5074368;28;20213;-56
2022/05/11 00:26:25;;;;;;;10.18;7.90;;;16.60;99.90;;;;;;5073767;28;20235;-56
2022/05/11 00:28:52;;;;;;;9.13;7.28;;;16.60;99.90;;;;;;5073654;28;20620;-56
2022/05/11 00:31:19;;;;;;;12.67;7.37;;;16.60;99.90;;;;;;5073867;28;20228;-55
2022/05/11 00:33:47;;;;;;;8.07;7.30;;;16.60;99.90;;;;;;5073626;28;20204;-56
2022/05/11 00:36:14;;;;;;;8.67;7.80;;;16.60;99.90;;;;;;5073214;28;20778;-56
2022/05/11 00:38:41;;;;;;;8.20;7.40;;;16.60;99.90;;;;;;5073364;28;20205;-55
2022/05/11 00:41:09;;;;;;;7.80;7.00;;;16.50;99.90;;;;;;5073511;28;20205;-56
2022/05/11 00:43:39;;;;;;;8.77;7.90;;;16.50;99.90;;;;;;5073672;28;20704;-56
2022/05/11 00:46:16;;;;;;;8.30;7.50;;;16.50;99.90;;;;;;5073520;28;20224;-56
2022/05/11 00:51:35;;;;;;;12.90;7.70;;;16.50;99.90;;;;;;5073999;28;20200;-55
2022/05/11 00:54:04;;;;;;;13.37;7.80;;;16.40;99.90;;;;;;5073702;28;20209;-56
2022/05/11 00:56:32;;;;;;;9.80;7.90;;;16.40;99.90;;;;;;5073332;28;20225;-56
2022/05/11 00:59:04;;;;;;;8.73;7.83;;;16.30;99.90;;;;;;5073632;28;20209;-55
2022/05/11 01:01:32;;;;;;;8.73;7.83;;;16.30;99.90;;;;;;5074240;28;20584;-57
2022/05/11 01:04:03;;;;;;;9.00;8.10;;;16.20;99.90;;;;;;5073964;28;20216;-56
2022/05/11 01:06:32;;;;;;;8.37;7.57;;;16.10;99.90;;;;;;5073003;28;20239;-57
2022/05/11 01:09:01;;;;;;;10.20;7.90;;;16.10;99.90;;;;;;5073496;28;20209;-56
2022/05/11 01:11:29;;;;;;;8.50;7.70;;;16.10;99.90;;;;;;5073414;28;20205;-56
2022/05/11 01:13:56;;;;;;;10.90;8.90;;;16.00;99.90;;;;;;5073142;28;20208;-56
2022/05/11 01:16:24;;;;;;;8.30;7.53;;;15.90;99.90;;;;;;5072387;28;20306;-56
2022/05/11 01:18:51;;;;;;;9.17;8.10;;;15.90;99.90;;;;;;5072462;28;20205;-56
2022/05/11 01:21:18;;;;;;;9.00;8.20;;;15.90;99.90;;;;;;5072872;28;20258;-56
2022/05/11 01:23:52;;;;;;;8.30;7.60;;;15.80;99.90;;;;;;5072617;28;20254;-56
2022/05/11 01:26:20;;;;;;;8.53;7.63;;;15.80;99.90;;;;;;5072241;28;20229;-56
2022/05/11 01:28:54;;;;;;;9.20;8.30;;;15.70;99.90;;;;;;5072562;28;20213;-56
2022/05/11 01:31:21;;;;;;;8.97;8.17;;;15.70;99.90;;;;;;5072447;28;20212;-55
2022/05/11 01:33:51;;;;;;;9.10;8.20;;;15.70;99.90;;;;;;5072359;28;20209;-56
2022/05/11 01:36:26;;;;;;;9.40;8.23;;;15.70;99.90;;;;;;5072346;28;20235;-56
2022/05/11 01:38:55;;;;;;;9.30;7.93;;;15.70;99.90;;;;;;5072576;28;20700;-56
2022/05/11 01:41:28;;;;;;;9.40;8.20;;;15.70;99.90;;;;;;5072202;28;20201;-56
2022/05/11 01:43:55;;;;;;;9.23;7.60;;;15.60;99.90;;;;;;5072661;28;20216;-57
2022/05/11 01:46:22;;;;;;;9.77;8.70;;;15.60;99.90;;;;;;5072198;28;20224;-56
2022/05/11 01:48:49;;;;;;;10.00;8.23;;;15.60;99.90;;;;;;5072424;28;20205;-57
2022/05/11 01:51:19;;;;;;;10.77;9.03;;;15.60;99.90;;;;;;5072445;28;20201;-55
2022/05/11 01:53:46;;;;;;;10.87;8.17;;;15.60;99.90;;;;;;5072133;28;20672;-56
2022/05/11 01:56:14;;;;;;;9.77;8.23;;;15.60;99.90;;;;;;5071872;28;20274;-56
2022/05/11 01:58:42;;;;;;;9.70;8.50;;;15.60;99.90;;;;;;5072468;28;20212;-55
2022/05/11 02:01:09;;;;;;;8.73;7.93;;;15.60;99.90;;;;;;5071275;28;20229;-55
2022/05/11 02:03:36;;;;;;;9.60;8.50;;;15.60;99.90;;;;;;5072053;28;20586;-56
2022/05/11 02:08:47;;;;;;;10.33;8.70;;;15.60;99.90;;;;;;5051509;28;20699;-57
2022/05/11 02:11:15;;;;;;;10.50;8.20;;;15.60;99.90;;;;;;5067431;28;20590;-57
2022/05/11 02:13:45;;;;;;;9.60;8.70;;;15.50;99.90;;;;;;5071949;28;20209;-57
2022/05/11 02:16:12;;;;;;;9.40;8.30;;;15.50;99.90;;;;;;5071798;28;20204;-57
2022/05/11 02:18:39;;;;;;;9.20;8.17;;;15.50;99.90;;;;;;5071852;28;20201;-58
2022/05/11 02:21:07;;;;;;;9.30;8.40;;;15.50;99.90;;;;;;5071829;28;20700;-57
2022/05/11 02:23:35;;;;;;;10.40;8.37;;;15.40;99.90;;;;;;5071695;28;20234;-58
2022/05/11 02:26:02;;;;;;;9.30;8.40;;;15.40;99.90;;;;;;5071644;28;20208;-57
2022/05/11 02:28:29;;;;;;;10.13;9.00;;;15.40;99.90;;;;;;5071951;28;20207;-57
2022/05/11 02:30:58;;;;;;;9.47;8.57;;;15.40;99.90;;;;;;5071663;28;20239;-57
2022/05/11 02:33:25;;;;;;;9.90;8.90;;;15.40;99.90;;;;;;5071680;28;20296;-58
2022/05/11 02:35:53;;;;;;;9.67;8.73;;;15.40;99.90;;;;;;5071563;28;20201;-58
2022/05/11 02:38:22;;;;;;;9.97;7.87;;;15.40;99.90;;;;;;5071767;28;20201;-56
2022/05/11 02:40:51;;;;;;;9.23;7.73;;;15.20;99.90;;;;;;5071664;28;20228;-57
2022/05/11 02:43:18;;;;;;;11.70;8.50;;;15.20;99.90;;;;;;5071668;28;20209;-56
2022/05/11 02:45:46;;;;;;;10.73;8.87;;;15.10;99.90;;;;;;5071475;28;20600;-57
2022/05/11 02:48:18;;;;;;;9.27;8.37;;;15.10;99.90;;;;;;5071314;28;20304;-57
2022/05/11 02:50:46;;;;;;;10.07;8.13;;;15.10;99.90;;;;;;5071491;28;20656;-57
2022/05/11 02:53:14;;;;;;;9.33;8.33;;;15.20;99.90;;;;;;5071672;28;20216;-57
2022/05/11 02:55:43;;;;;;;8.83;8.03;;;15.10;99.90;;;;;;5071348;28;20204;-58
2022/05/11 02:58:10;;;;;;;10.90;7.90;;;15.10;99.90;;;;;;5071278;28;20232;-58
2022/05/11 03:00:38;;;;;;;9.07;8.17;;;15.10;99.90;;;;;;5071415;28;20217;-59
2022/05/11 03:03:06;;;;;;;9.00;8.10;;;14.90;99.90;;;;;;5071250;28;20209;-57
2022/05/11 03:05:35;;;;;;;8.73;7.93;;;14.90;99.90;;;;;;5071507;28;20274;-57
2022/05/11 03:08:02;;;;;;;9.70;8.70;;;14.90;99.90;;;;;;5070888;28;20653;-59
2022/05/11 03:10:28;;;;;;;9.63;8.10;;;14.90;99.90;;;;;;5071215;28;20213;-57
2022/05/11 03:12:55;;;;;;;10.30;8.47;;;14.90;99.90;;;;;;5073331;28;20213;-57
2022/05/11 03:15:22;;;;;;;9.17;8.27;;;14.90;99.90;;;;;;5075061;28;20278;-58
2022/05/11 03:17:49;;;;;;;9.83;8.57;;;14.90;99.90;;;;;;5074703;28;20298;-57
2022/05/11 03:20:17;;;;;;;10.33;8.23;;;14.90;99.90;;;;;;5074886;28;20282;-59
2022/05/11 03:22:45;;;;;;;9.10;8.20;;;15.00;99.90;;;;;;5074873;28;20208;-58
2022/05/11 03:25:12;;;;;;;9.53;8.63;;;14.90;99.90;;;;;;5074790;28;20251;-58
2022/05/11 03:27:39;;;;;;;9.53;8.60;;;14.90;99.90;;;;;;5074865;28;20229;-58
2022/05/11 03:30:08;;;;;;;9.27;8.30;;;14.90;99.90;;;;;;5074728;28;20208;-60
2022/05/11 03:35:19;;;;;;;10.03;8.80;;;14.90;99.90;;;;;;5074742;28;20290;-57
2022/05/11 03:37:48;;;;;;;9.43;8.40;;;14.80;99.90;;;;;;5074220;28;20229;-57
2022/05/11 03:40:15;;;;;;;8.60;7.87;;;14.80;99.90;;;;;;5074306;28;20712;-57
2022/05/11 03:42:42;;;;;;;9.20;8.30;;;14.70;99.90;;;;;;5074377;28;20212;-57
2022/05/11 03:45:11;;;;;;;10.87;9.23;;;14.70;99.90;;;;;;5074557;28;20216;-57
2022/05/11 03:47:38;;;;;;;9.10;8.30;;;14.70;99.90;;;;;;5073989;28;20232;-58
2022/05/11 03:50:06;;;;;;;8.80;8.00;;;14.70;99.90;;;;;;5074751;28;20258;-57
2022/05/11 03:52:33;;;;;;;9.17;8.27;;;14.70;99.90;;;;;;5074330;28;20668;-58
2022/05/11 03:55:02;;;;;;;9.13;8.20;;;14.60;99.90;;;;;;5074149;28;20209;-57
2022/05/11 03:57:28;;;;;;;9.87;8.87;;;14.70;99.90;;;;;;5074069;28;20261;-60
2022/05/11 03:59:55;;;;;;;10.33;8.93;;;14.70;99.90;;;;;;5074059;28;20205;-58
2022/05/11 04:02:22;;;;;;;8.67;7.87;;;14.80;99.90;;;;;;5073942;28;20725;-58
2022/05/11 04:04:48;;;;;;;9.33;7.73;;;14.70;99.90;;;;;;5074437;28;20637;-56
2022/05/11 04:07:15;;;;;;;8.77;7.87;;;14.80;99.90;;;;;;5073508;28;20298;-58
2022/05/11 04:09:42;;;;;;;8.83;8.03;;;14.80;99.90;;;;;;5073851;28;20204;-57
2022/05/11 04:12:11;;;;;;;8.63;7.73;;;14.90;99.90;;;;;;5074000;28;20213;-58
2022/05/11 04:14:37;;;;;;;9.37;7.67;;;14.90;99.90;;;;;;5074004;28;20208;-58
2022/05/11 04:17:04;;;;;;;8.50;7.67;;;15.00;99.90;;;;;;5073537;28;20282;-57
2022/05/11 04:19:31;;;;;;;9.87;7.03;;;15.00;99.90;;;;;;5073644;28;20262;-58
2022/05/11 04:21:58;;;;;;;7.93;7.23;;;15.10;99.90;;;;;;5073458;28;20229;-57
2022/05/11 04:24:25;;;;;;;8.37;6.93;;;15.20;99.90;;;;;;5072718;28;20212;-58
2022/05/11 04:26:52;;;;;;;8.13;7.20;;;15.30;99.90;;;;;;5073508;28;20232;-57
2022/05/11 04:29:20;;;;;;;7.80;7.00;;;15.50;99.90;;;;;;5073582;28;20209;-58
2022/05/11 04:31:53;;;;;;;8.77;7.10;;;15.60;99.90;;;;;;5073616;28;20254;-57
2022/05/11 04:34:20;;;;;;;7.53;6.80;;;15.80;99.90;;;;;;5073787;28;20741;-57
2022/05/11 04:36:47;;;;;;;8.13;7.43;;;15.90;99.90;;;;;;5073597;28;20232;-57
2022/05/11 04:39:13;;;;;;;8.23;7.43;;;16.00;99.90;;;;;;5073758;28;20587;-58
2022/05/11 04:41:40;;;;;;;7.78;6.88;;;16.10;99.90;;;;;;5073334;28;20235;-58
2022/05/11 04:44:07;;;;;;;8.10;6.90;;;16.20;99.90;;;;;;5073597;28;20205;-58
2022/05/11 04:46:36;;;;;;;8.60;6.20;;;16.30;99.90;;;;;;5073053;28;20228;-59
2022/05/11 04:52:01;;;;;;;7.90;7.10;;;16.50;99.90;;;;;;5109816;27;20609;-59
2022/05/11 04:54:28;;;;;;;8.30;7.60;;;16.70;99.90;;;;;;5109828;28;20222;-58
2022/05/11 04:56:54;;;;;;;12.77;11.57;;;16.80;99.90;;;;;;5109436;28;20280;-58
2022/05/11 04:59:22;;;;;;;9.98;9.07;;;16.90;99.90;;;;;;5109454;28;20214;-57
2022/05/11 05:01:48;;;;;;;8.63;7.57;;;17.00;99.90;;;;;;5109238;28;20199;-57
2022/05/11 05:04:16;;;;;;;7.43;6.63;;;17.10;99.90;;;;;;5133964;22;20211;-57
2022/05/11 05:06:43;;;;;;;8.15;6.65;;;17.00;99.90;;;;;;5048307;28;20260;-56
2022/05/11 05:09:11;;;;;;;9.57;8.57;;;17.10;99.90;;;;;;5049068;28;20617;-56
2022/05/11 05:11:38;;;;;;;7.70;6.80;;;17.20;99.90;;;;;;5048795;28;20222;-55
2022/05/11 05:14:06;;;;;;;7.10;6.35;;;17.30;99.90;;;;;;5048825;28;20206;-56
2022/05/11 05:16:33;;;;;;;8.30;6.10;;;17.40;99.90;;;;;;5048561;28;20291;-56
2022/05/11 05:18:59;;;;;;;6.75;5.60;;;17.60;99.90;;;;;;5049133;28;20212;-56
2022/05/11 05:21:26;;;;;;;11.82;6.40;;;17.80;99.90;;;;;;5048761;28;20292;-55
2022/05/11 05:23:53;;;;;;;8.38;5.55;;;18.00;99.90;;;;;;5049075;28;20205;-55
2022/05/11 05:26:21;;;;;;;7.65;4.35;;;18.20;99.90;;;;;;5048524;28;20225;-56
2022/05/11 05:31:32;;;;;;;6.85;4.40;;;18.90;99.90;;;;;;5049139;28;20233;-56
2022/05/11 05:34:00;;;;;;;5.43;4.93;;;19.40;99.90;;;;;;5049882;28;20634;-55
2022/05/11 05:36:28;;;;;;;8.85;5.20;;;19.70;99.90;;;;;;5049282;28;20307;-56
2022/05/11 05:38:55;;;;;;;6.97;4.63;;;20.10;99.90;;;;;;5049375;28;20216;-57
2022/05/11 05:41:23;;;;;;;7.22;4.03;;;21.30;99.90;;;;;;5049168;28;20210;-55
2022/05/11 05:43:50;;;;;;;4.20;3.70;;;23.00;99.90;;;;;;5049575;28;20236;-55
2022/05/11 05:46:17;;;;;;;4.10;3.70;;;24.80;99.90;;;;;;5048865;28;20222;-55
2022/05/11 05:48:44;;;;;;;4.18;3.40;;;26.40;99.90;;;;;;5049592;28;20213;-56
2022/05/11 05:51:12;;;;;;;7.25;5.68;;;27.70;97.00;;;;;;5048545;28;20637;-57
2022/05/11 05:53:40;;;;;;;3.65;3.00;;;29.00;94.30;;;;;;5048621;28;20284;-56
2022/05/11 05:56:07;;;;;;;4.47;2.95;;;29.90;87.30;;;;;;5049411;28;20222;-56
2022/05/11 05:58:35;;;;;;;3.67;3.03;;;30.60;82.70;;;;;;5050096;28;20201;-56
2022/05/11 06:01:02;;;;;;;4.20;3.75;;;31.30;78.30;;;;;;5049445;28;20700;-57
2022/05/11 06:03:31;;;;;;;6.90;2.85;;;32.10;72.30;;;;;;5035446;28;20690;-57
2022/05/11 06:05:57;;;;;;;3.58;2.75;;;32.70;68.90;;;;;;5035911;28;20705;-58
2022/05/11 06:08:24;;;;;;;2.88;2.50;;;33.50;64.70;;;;;;5034820;28;20213;-57
2022/05/11 06:10:54;;;;;;;7.53;3.10;;;34.20;62.90;;;;;;5035252;28;20237;-57
2022/05/11 06:13:22;;;;;;;5.40;2.95;;;34.50;59.80;;;;;;5035063;28;20639;-57
2022/05/11 06:15:51;;;;;;;3.38;2.53;;;35.10;58.30;;;;;;5034794;28;20252;-57
2022/05/11 06:18:18;;;;;;;4.68;2.78;;;35.70;56.20;;;;;;5034380;28;20206;-57
2022/05/11 06:20:45;;;;;;;7.03;2.90;;;36.30;53.90;;;;;;5034838;28;20202;-56
2022/05/11 06:23:12;;;;;;;8.70;3.67;;;36.60;52.80;;;;;;5035086;28;20398;-57
2022/05/11 06:25:39;;;;;;;5.00;2.72;;;36.60;52.00;;;;;;5034816;28;20229;-57
2022/05/11 06:28:07;;;;;;;5.80;2.75;;;36.70;51.60;;;;;;5034617;28;20206;-57
2022/05/11 06:30:35;;;;;;;4.65;2.75;;;37.10;50.40;;;;;;5034765;28;20222;-56
2022/05/11 06:33:04;;;;;;;3.17;2.88;;;37.30;49.90;;;;;;5034804;28;20256;-56
2022/05/11 06:35:31;;;;;;;5.03;2.97;;;37.80;48.70;;;;;;5034120;28;20236;-58
2022/05/11 06:38:02;;;;;;;2.65;2.45;;;38.00;48.40;;;;;;5034328;28;20207;-57
2022/05/11 06:40:29;;;;;;;9.02;2.60;;;38.20;47.70;;;;;;5034245;28;20666;-58
2022/05/11 06:42:56;;;;;;;3.63;2.70;;;38.80;46.80;;;;;;5034694;28;20206;-61
2022/05/11 06:45:23;;;;;;;4.57;2.55;;;39.60;45.80;;;;;;5034352;28;20226;-57
2022/05/11 06:47:50;;;;;;;6.55;3.10;;;40.00;45.40;;;;;;5033844;28;20202;-58
2022/05/11 06:50:18;;;;;;;3.28;2.38;;;40.00;44.70;;;;;;5033888;28;20669;-58
2022/05/11 06:52:45;;;;;;;3.10;2.75;;;40.10;44.00;;;;;;5034026;28;20202;-59
2022/05/11 07:00:40;;;;;;;5.25;2.83;;;40.60;42.80;;;;;;5034096;28;20230;-61
2022/05/11 07:03:07;;;;;;;10.52;2.83;;;40.60;42.60;;;;;;5033988;28;20213;-58
2022/05/11 07:05:36;;;;;;;6.50;2.72;;;40.40;42.60;;;;;;5034231;28;20307;-58
2022/05/11 07:08:03;;;;;;;5.35;3.05;;;40.60;42.10;;;;;;5033820;28;20206;-58
2022/05/11 07:10:31;;;;;;;4.63;2.63;;;40.80;42.00;;;;;;5034405;28;20237;-58
2022/05/11 07:12:58;;;;;;;12.15;3.42;;;41.20;41.20;;;;;;5033042;28;20202;-58
2022/05/11 07:15:25;;;;;;;3.28;2.55;;;41.40;41.00;;;;;;5033037;28;20229;-57
2022/05/11 07:17:55;;;;;;;3.78;2.40;;;41.40;40.70;;;;;;5033811;28;20337;-57
2022/05/11 07:20:28;;;;;;;3.95;2.40;;;41.60;40.60;;;;;;5033752;28;20206;-57
2022/05/11 07:22:57;;;;;;;4.57;2.75;;;41.70;40.40;;;;;;5033919;28;20210;-58
2022/05/11 07:25:25;;;;;;;3.38;2.33;;;41.70;40.20;;;;;;5033377;28;20264;-58
2022/05/11 07:27:52;;;;;;;6.93;3.15;;;41.80;40.00;;;;;;5033157;28;20565;-58
2022/05/11 07:30:21;;;;;;;2.97;2.50;;;42.00;40.60;;;;;;5033325;28;20336;-58
2022/05/11 07:32:48;;;;;;;4.95;2.70;;;42.30;39.50;;;;;;5033074;28;20696;-61
2022/05/11 07:35:15;;;;;;;4.63;2.60;;;42.30;39.00;;;;;;5033123;28;20225;-60
2022/05/11 07:37:46;;;;;;;4.78;2.20;;;42.50;38.90;;;;;;5032909;28;20208;-60
2022/05/11 07:40:16;;;;;;;4.72;2.38;;;43.10;38.20;;;;;;5033307;28;20679;-60
2022/05/11 07:42:43;;;;;;;7.47;2.85;;;43.50;37.70;;;;;;5033391;28;20194;-60
2022/05/11 07:45:11;;;;;;;6.80;2.75;;;43.80;37.20;;;;;;5032979;28;20729;-60
2022/05/11 07:47:39;;;;;;;5.13;2.83;;;43.90;36.60;;;;;;5032673;28;20283;-60
2022/05/11 07:50:07;;;;;;;8.00;2.67;;;43.80;37.00;;;;;;5032945;28;20368;-60
2022/05/11 07:52:33;;;;;;;6.35;2.67;;;43.70;36.70;;;;;;5032659;28;20720;-60
2022/05/11 07:55:00;;;;;;;3.28;2.28;;;43.60;37.10;;;;;;5032945;28;20228;-60
2022/05/11 08:00:13;;;;;;;4.47;2.50;;;43.80;37.10;;;;;;5032780;28;20209;-60
2022/05/11 08:02:40;;;;;;;5.72;2.83;;;43.60;37.30;;;;;;5032994;28;20202;-60
2022/05/11 08:05:09;;;;;;;2.30;2.10;;;43.20;37.50;;;;;;5032404;28;20736;-60
2022/05/11 08:07:39;;;;;;;3.80;2.38;;;43.10;37.40;;;;;;5032757;28;20217;-60
2022/05/11 08:10:07;;;;;;;5.53;2.90;;;42.80;37.80;;;;;;5032670;28;20210;-60
2022/05/11 08:12:36;;;;;;;4.55;2.00;;;42.90;37.70;;;;;;5032772;28;20236;-65
2022/05/11 08:15:03;;;;;;;3.85;2.40;;;43.10;37.10;;;;;;5032578;28;20241;-59
2022/05/11 08:17:32;;;;;;;4.70;2.25;;;43.20;37.40;;;;;;5032023;28;20205;-59
2022/05/11 08:20:00;;;;;;;5.00;2.40;;;43.10;37.40;;;;;;5032364;28;20209;-59
2022/05/11 08:22:27;;;;;;;3.03;2.10;;;43.30;37.00;;;;;;5032332;28;20289;-60
2022/05/11 08:24:56;;;;;;;4.35;2.25;;;43.50;36.70;;;;;;5032241;28;20229;-60
2022/05/11 08:27:26;;;;;;;2.83;2.40;;;43.60;36.40;;;;;;5032093;28;20263;-60
2022/05/11 08:35:25;;;;;;;4.97;2.35;;;41.30;38.80;;;;;;5032255;28;20716;-59
2022/05/11 08:37:52;;;;;;;3.78;2.42;;;39.70;39.60;;;;;;5031916;28;20213;-60
2022/05/11 08:40:30;;;;;;;3.10;2.60;;;38.10;41.90;;;;;;5031997;28;20202;-59
2022/05/11 08:42:57;;;;;;;5.18;2.50;;;36.40;43.60;;;;;;5032411;28;20198;-59
2022/05/11 08:45:35;;;;;;;5.25;2.80;;;35.10;45.30;;;;;;5032061;28;20718;-58
2022/05/11 08:48:08;;;;;;;3.10;2.58;;;33.90;46.60;;;;;;5031910;28;20678;-58
2022/05/11 08:50:37;;;;;;;5.55;2.55;;;32.80;48.50;;;;;;5032243;28;20213;-58
2022/05/11 08:53:07;;;;;;;6.32;2.70;;;32.00;49.50;;;;;;5032349;28;20717;-57
2022/05/11 08:55:38;;;;;;;5.05;2.55;;;31.30;50.70;;;;;;5033056;28;20618;-58
2022/05/11 08:58:09;;;;;;;5.00;2.50;;;30.90;51.60;;;;;;5032262;28;20217;-59
2022/05/11 09:00:39;;;;;;;4.28;2.53;;;30.50;52.80;;;;;;5032975;28;20244;-58
2022/05/11 09:03:11;;;;;;;4.10;2.30;;;30.20;52.50;;;;;;5032799;28;20229;-58
2022/05/11 09:05:38;;;;;;;4.65;2.55;;;29.90;52.30;;;;;;5032256;28;20230;-59
2022/05/11 09:08:06;;;;;;;2.97;2.25;;;29.60;53.20;;;;;;5031910;28;20210;-59
2022/05/11 09:10:36;;;;;;;3.72;2.65;;;29.40;53.10;;;;;;5032103;28;20206;-58
2022/05/11 09:13:05;;;;;;;3.45;2.63;;;29.30;54.30;;;;;;5032097;28;20724;-58
2022/05/11 09:15:57;;;;;;;5.47;2.65;;;29.10;55.30;;;;;;5032038;28;20235;-58
2022/05/11 09:18:35;;;;;;;4.10;2.38;;;28.90;55.00;;;;;;5031950;28;20217;-59
2022/05/11 09:21:11;;;;;;;4.50;2.40;;;28.70;54.10;;;;;;5031973;28;20670;-59
2022/05/11 09:23:41;;;;;;;6.38;2.20;;;28.50;54.00;;;;;;5031841;28;20264;-58
2022/05/11 09:26:10;;;;;;;4.95;2.10;;;28.50;53.90;;;;;;5031608;28;20237;-58
2022/05/11 09:28:39;;;;;;;2.50;2.30;;;28.50;54.10;;;;;;5031231;28;20210;-59
2022/05/11 09:31:12;;;;;;;5.72;2.22;;;28.50;53.80;;;;;;5031522;28;20218;-58
2022/05/11 09:33:40;;;;;;;3.78;2.17;;;28.50;54.00;;;;;;5031719;28;20206;-59
2022/05/11 09:36:09;;;;;;;7.82;2.70;;;28.50;53.40;;;;;;5031387;28;20230;-59
2022/05/11 09:38:38;;;;;;;4.93;2.80;;;28.60;54.90;;;;;;5034454;28;20666;-58
2022/05/11 09:41:22;;;;;;;2.42;2.17;;;28.70;54.10;;;;;;5035437;28;20202;-59
2022/05/11 09:43:53;;;;;;;3.30;2.55;;;28.80;54.90;;;;;;5035247;28;20245;-59
2022/05/11 09:46:30;;;;;;;3.70;2.17;;;28.80;54.30;;;;;;5035030;28;20234;-58
2022/05/11 09:49:00;;;;;;;5.43;2.47;;;28.80;54.30;;;;;;5034643;28;20596;-60
2022/05/11 09:51:33;;;;;;;6.22;2.88;;;28.90;53.80;;;;;;5035103;28;20222;-59
2022/05/11 09:54:15;;;;;;;5.20;2.60;;;28.90;54.50;;;;;;5035090;28;20256;-58
2022/05/11 09:56:52;;;;;;;3.80;2.67;;;28.90;54.00;;;;;;5034922;28;20265;-58
2022/05/11 09:59:22;;;;;;;4.47;2.60;;;28.90;53.70;;;;;;5034943;28;20681;-58
2022/05/11 10:01:55;;;;;;;3.47;2.58;;;28.90;53.70;;;;;;5034663;28;20190;-58
2022/05/11 10:04:29;;;;;;;5.15;2.80;;;28.90;54.30;;;;;;5034748;28;20213;-59
2022/05/11 10:06:57;;;;;;;5.43;2.47;;;29.10;54.70;;;;;;5034738;28;20220;-58
2022/05/11 10:09:30;;;;;;;6.57;2.80;;;29.20;54.50;;;;;;5034454;28;20206;-59
2022/05/11 10:11:58;;;;;;;5.82;2.70;;;29.30;54.00;;;;;;5034604;28;20222;-62
2022/05/11 10:22:56;;;;;;;5.38;2.88;;;29.90;54.30;;;;;;5034433;28;20343;-58
2022/05/11 10:25:26;;;;;;;3.22;2.72;;;29.90;53.80;;;;;;5033918;28;20649;-59
2022/05/11 10:27:59;;;;;;;5.65;3.10;;;30.10;53.60;;;;;;5034372;28;20230;-58
2022/05/11 10:30:34;;;;;;;3.88;2.90;;;30.40;53.20;;;;;;5034680;28;20210;-59
2022/05/11 10:33:14;;;;;;;8.25;3.50;;;30.60;53.20;;;;;;5034048;28;20236;-58
2022/05/11 10:35:51;;;;;;;6.38;2.80;;;30.80;52.80;;;;;;5034246;28;20262;-58
2022/05/11 10:38:34;;;;;;;5.00;2.95;;;31.00;53.10;;;;;;5033777;28;20315;-58
2022/05/11 10:41:11;;;;;;;4.68;2.95;;;31.20;52.40;;;;;;5034068;28;20658;-58
2022/05/11 10:43:45;;;;;;;3.45;2.85;;;31.30;51.70;;;;;;5033962;28;20625;-58
2022/05/11 10:46:18;;;;;;;5.35;2.78;;;31.40;51.40;;;;;;5033979;28;20316;-59
2022/05/11 10:49:01;;;;;;;3.42;2.70;;;31.30;50.70;;;;;;5033803;28;20593;-59
2022/05/11 10:51:36;;;;;;;4.40;2.90;;;31.20;51.60;;;;;;5033814;28;20210;-59
2022/05/11 10:54:11;;;;;;;5.82;2.67;;;31.20;52.00;;;;;;5034046;28;20209;-59
2022/05/11 10:56:50;;;;;;;3.70;3.00;;;31.30;52.60;;;;;;5033842;28;20234;-58
2022/05/11 10:59:47;;;;;;;4.50;2.50;;;31.50;52.20;;;;;;5033699;28;20210;-59
2022/05/11 11:02:49;;;;;;;5.20;2.60;;;31.70;51.90;;;;;;5033597;28;20535;-59
2022/05/11 11:05:25;;;;;;;7.10;3.05;;;31.90;51.60;;;;;;5052186;23;20287;-59
2022/05/11 11:08:00;;;;;;;6.30;3.08;;;32.10;51.10;;;;;;5045559;28;20201;-60
2022/05/11 11:10:33;;;;;;;4.65;2.50;;;32.40;50.70;;;;;;5053241;28;20205;-60
2022/05/11 11:13:22;;;;;;;5.38;2.67;;;32.70;49.80;;;;;;5053453;28;20287;-59
2022/05/11 11:15:51;;;;;;;5.38;2.63;;;32.70;49.50;;;;;;5053575;28;20228;-60
2022/05/11 11:18:23;;;;;;;2.83;2.60;;;32.70;49.70;;;;;;5053024;28;20300;-60
2022/05/11 11:20:56;;;;;;;3.22;2.60;;;32.60;48.50;;;;;;5053089;28;20217;-58
2022/05/11 11:23:32;;;;;;;4.28;2.80;;;32.60;48.40;;;;;;5053198;28;20212;-58
2022/05/11 11:26:01;;;;;;;4.28;2.38;;;32.70;48.60;;;;;;5052869;28;20590;-58
2022/05/11 11:28:30;;;;;;;5.88;2.58;;;32.70;48.70;;;;;;5052927;28;20259;-60
2022/05/11 11:31:17;;;;;;;4.18;2.63;;;32.60;48.50;;;;;;5052904;28;20209;-59
2022/05/11 11:34:18;;;;;;;6.10;2.38;;;32.50;47.70;;;;;;5052758;28;20229;-58
2022/05/11 11:36:46;;;;;;;3.38;2.40;;;32.40;48.00;;;;;;5052716;28;20609;-59
2022/05/11 11:39:35;;;;;;;5.45;2.20;;;32.30;46.90;;;;;;5052497;28;20255;-58
2022/05/11 11:42:05;;;;;;;2.67;2.00;;;32.30;46.90;;;;;;5052567;28;20747;-59
2022/05/11 11:44:39;;;;;;;3.75;2.50;;;32.20;47.00;;;;;;5052484;28;20210;-60
2022/05/11 11:47:38;;;;;;;3.03;2.70;;;32.20;46.80;;;;;;5052366;28;20206;-60
2022/05/11 11:50:10;;;;;;;3.45;2.25;;;32.30;48.20;;;;;;5046567;28;20300;-60
2022/05/11 11:52:41;;;;;;;7.00;2.63;;;32.30;47.10;;;;;;5052424;28;20560;-58
2022/05/11 11:55:24;;;;;;;4.97;2.97;;;32.20;47.10;;;;;;5052119;28;20252;-59
2022/05/11 11:57:55;;;;;;;9.00;2.97;;;32.00;47.10;;;;;;5051998;28;20748;-59
2022/05/11 12:00:53;;;;;;;6.90;3.55;;;31.90;48.00;;;;;;5051670;28;20221;-60
2022/05/11 12:03:24;;;;;;;7.13;2.50;;;31.80;47.90;;;;;;5052312;28;20209;-58
2022/05/11 12:05:55;;;;;;;3.63;2.55;;;31.80;48.70;;;;;;5052085;28;20324;-59
2022/05/11 12:16:52;;;;;;;5.45;2.70;;;31.70;48.20;;;;;;5052021;28;20244;-59
2022/05/11 12:19:20;;;;;;;4.47;2.80;;;31.70;48.50;;;;;;5051926;28;20213;-60
2022/05/11 12:21:55;;;;;;;6.40;2.50;;;31.70;48.80;;;;;;5051949;28;20206;-59
2022/05/11 12:24:27;;;;;;;3.75;2.50;;;31.70;49.30;;;;;;5052230;28;20304;-60
2022/05/11 12:26:56;;;;;;;5.47;2.90;;;31.60;49.10;;;;;;5051464;28;20225;-59
2022/05/11 12:32:08;;;;;;;7.18;2.75;;;31.40;49.70;;;;;;5051924;28;20598;-60
2022/05/11 12:34:42;;;;;;;6.00;2.72;;;31.40;48.90;;;;;;5051683;28;20252;-60
2022/05/11 12:37:22;;;;;;;3.55;2.63;;;31.70;49.30;;;;;;5051603;28;20213;-60
2022/05/11 12:40:00;;;;;;;3.53;2.30;;;31.80;45.70;;;;;;5051968;28;20229;-60
2022/05/11 12:42:32;;;;;;;4.43;2.20;;;31.80;45.60;;;;;;5051379;28;20548;-60
2022/05/11 12:44:59;;;;;;;2.72;2.20;;;31.80;45.90;;;;;;5051565;28;20798;-60
2022/05/11 12:47:27;;;;;;;3.17;1.98;;;31.80;45.70;;;;;;5051595;28;20201;-61
2022/05/11 12:49:54;;;;;;;5.25;2.50;;;31.80;45.60;;;;;;5051581;28;20297;-61
2022/05/11 12:52:24;;;;;;;4.20;2.33;;;31.80;45.60;;;;;;5051537;28;20221;-60
2022/05/11 12:55:01;;;;;;;7.88;2.83;;;31.70;45.90;;;;;;5051629;28;20279;-60
2022/05/11 12:57:37;;;;;;;2.67;2.17;;;31.80;45.00;;;;;;5051593;28;20205;-60
2022/05/11 13:00:12;;;;;;;3.90;2.42;;;31.80;45.20;;;;;;5051388;28;20205;-61
2022/05/11 13:02:41;;;;;;;10.13;3.90;;;31.90;44.60;;;;;;5051185;28;20756;-60
2022/05/11 13:05:11;;;;;;;5.25;2.00;;;31.90;44.50;;;;;;5051017;28;20288;-61
2022/05/11 13:07:45;;;;;;;4.60;1.90;;;31.90;43.30;;;;;;5051241;28;20727;-61
2022/05/11 13:10:17;;;;;;;2.72;1.67;;;31.90;43.90;;;;;;5051576;28;20237;-60
2022/05/11 13:12:48;;;;;;;5.50;2.30;;;31.80;44.30;;;;;;5053377;28;20221;-61
2022/05/11 13:15:15;;;;;;;7.75;2.20;;;31.80;44.10;;;;;;5055502;28;20232;-60
2022/05/11 13:17:47;;;;;;;8.40;2.05;;;31.80;45.60;;;;;;5055096;28;20835;-61
2022/05/11 13:20:23;;;;;;;7.95;2.00;;;31.70;43.80;;;;;;5055453;28;20420;-60
2022/05/11 13:22:50;;;;;;;4.50;2.10;;;31.80;43.40;;;;;;5055352;28;20201;-59
2022/05/11 13:25:44;;;;;;;5.68;2.00;;;31.90;44.30;;;;;;5055374;28;20224;-61
2022/05/11 13:28:13;;;;;;;4.35;1.80;;;31.90;44.00;;;;;;5055051;28;20672;-60
2022/05/11 13:30:44;;;;;;;4.97;2.35;;;31.90;43.00;;;;;;5055418;28;20210;-59
2022/05/11 13:33:40;;;;;;;4.90;2.20;;;31.90;43.40;;;;;;5055155;28;20229;-60
2022/05/11 13:36:26;;;;;;;3.75;2.10;;;31.80;43.20;;;;;;5054927;28;20236;-59
2022/05/11 13:38:59;;;;;;;2.83;1.70;;;31.80;43.40;;;;;;5054915;28;20213;-60
2022/05/11 13:41:30;;;;;;;4.07;2.05;;;31.70;42.50;;;;;;5055096;28;20205;-60
2022/05/11 13:43:59;;;;;;;5.28;2.00;;;31.70;42.40;;;;;;5055179;28;20212;-61
2022/05/11 13:49:38;;;;;;;9.98;2.60;;;31.80;42.50;;;;;;5055192;28;20205;-60
2022/05/11 13:52:09;;;;;;;4.90;2.03;;;31.70;42.50;;;;;;5055141;28;20216;-61